Airfield :







YOU CAN JOIN US ON...

 
LOGIN :

Register | Disclaimer

   EN    FR    IT 

 









Legend :    VFR   Marginal VFR   IFR   Intensive IFR   Very Intensive IFR
Visi :
Ceiling :
>= 8 km
>= 3000ft
5 to 8 km
1000 to 3000 ft
1500m to 5 km
500 to 1000 ft
800 to 1500m
200 to 500 ft
< 800m
< 200 ft
Symbols :   Thunderstorms  Fog  Heavy snow  Heavy precipitations  Wind > 20 kt






- Airport Elevation : 1442 ft
- IATA code : ZUM


CZUM - Churchill Falls

CURRENT METAR :
  • 151622Z AUTO 10015G25KT 1 1/2SM -SN BKN018 OVC029 M04/M05 A2878 RMK PRESFR SLP774

EXPIRED METARs :
  • 151601Z AUTO 11018G28KT 1SM -SN OVC016 M04/M06 A2881 RMK VIS VRB 5/8-2 1/4 PRESFR SLP784
  • 151553Z AUTO 10017G27KT 1 1/2SM -SN OVC014 M04/M06 A2882 RMK PRESFR SLP789
  • 151546Z AUTO 10019G27KT 3/4SM -SN VV010 M05/M06 A2882 RMK PRESFR SLP791
  • 151527Z AUTO 10017G25KT 3/8SM SN VV005 M05/M06 A2885 RMK SLP799
  • 151507Z AUTO 10019G26KT 1/4SM +SN VV006 M05/M07 A2887 RMK SLP806
  • 151451Z AUTO 10018G25KT 1/2SM SN VV008 M05/M07 A2888 RMK PRESFR SLP811
  • 151400Z AUTO 13011G26KT 080V160 3/4SM -SN VV010 M05/M07 A2896 RMK PRESRR SLP839

TAF TAF CZUM
Valid from the 15 at 14:00 until the 16 at 02:00 UTC


151342Z 1514/1602 10020G35KT 3/4SM -SN BLSN VV007
TEMPO 1514/1518 11/2SM -SNPL OVC010
PROB30 1514/1518 3SM -FZRA BR
FM151800 09015G30KT 1SM -SN BLSN OVC008
TEMPO 1518/1524 3SM -SNPL OVC010
PROB30 1518/1524 3SM -FZRA BR
FM160000 11012KT 3/4SM -RASN BR OVC004
TEMPO 1600/1602 2SM -SN OVC008
PROB30 1600/1602 3SM -FZRA BR RMK FCST BASED ON AUTO OBS. NXT FCST BY 152000Z



MET'MAP, your aeronautical weather chart ! - Copyright ORBIFLY December 2007 - Disclaimer

ORBIFLY MET'MAP TEAM :

Programming & Development : Alexandra Zaïnal
Concept & original design : Baudouin d'Aumeries
Assistance for programming : Marc-Olivier Méhu
Technical & hardware support : Manuel Goepfert

Contact : metmap@orbifly.com




SOURCES & CREDITS :

   NOAA